Portada
METAR-TAF:

METAR-TAF

Aeroports :

Puerto Limón, Costa Rica

latitud: 10-00N, longitud: 083-03W, altitud: 5 m

Observació

L'informe es va fer fa 23 minuts, a les 19:00 UTC
Vent 9 kt del Nord/Nord-Est
Temperatura 30°C
Humitat 66%
Pressió 1011 hPa
Visibilitat 10 km o més
sense núvols per sota de 1500 mi sense presència de cumulonimbus.

METAR: MRLM 221900Z 02009KT CAVOK 30/23 A2986

Hora: 13:23 (19:23 UTC)

Pronòstic

L'informe es va fer fa 2 hores i 23 minuts, a les 17:00 UTC
Pronòstic vàlid del 22 a les 18 UTC al 23 a les 18 UTC
Vent 6 kt del Nord-Est
Visibilitat 10 km o més
Núvols disperses a una alçada de 2000 ft
Evolucionant progressivament
l' 22 a les 23 UTC al 23 a les 01 UTC
Vent 4 kt del Oest/Sud-Oest
Evolucionant progressivament
l' 23 a les 15 UTC al 23 a les 17 UTC
Vent 5 kt del Est/Nord-Est

TAF: MRLM 221700Z 2218/2318 04006KT 9999 SCT020 TX31/2219Z TN21/2212Z BECMG 2223/2301 25004KT BECMG 2315/2317 06005KT

Observacions i pronòstics meteorològics de més de 4000 aeroports (METAR i TAF).

Les estacions disponibles són els punts grocs i vermells al mapa.

Posi el ratolí al punt desitjat per veure el nom de l'estació.

Feu clic per veure les observacions i els pronòstics meteorològics.

Per canviar el mapa: feu clic els botons verds amb una creu de color negre per apropar; al botó verd amb un guió per allunyar la imatge; o en les fletxes verdes per a mapes adjacents.


METAR-TAF: